Time;durP1;ratioP1;P1;durP2;ratioP2;P2;SDS_P1;SDS_P2;PMS_P1;PMS_P2;Temp;Humidity;BMP_temperature;BMP_pressure;BME280_temperature;BME280_humidity;BME280_pressure;Samples;Min_cycle;Max_cycle;Signal;HPM_P1;HPM_P2
2021/12/10 00:03:54;;;;;;;32.23;11.90;;;1.50;99.90;;;-0.60;100.00;98978.72;10533623;27;96597;-80
2021/12/10 00:09:11;;;;;;;34.80;13.13;;;1.50;99.90;;;-0.60;100.00;98989.16;10550841;27;96762;-80
2021/12/10 00:14:16;;;;;;;28.60;10.80;;;1.40;99.90;;;-0.61;100.00;98974.47;10575355;27;96714;-80
2021/12/10 00:19:32;;;;;;;26.97;10.63;;;1.50;99.90;;;-0.59;100.00;98965.56;10556669;27;96557;-80
2021/12/10 00:24:37;;;;;;;23.43;8.50;;;1.50;99.90;;;-0.57;100.00;98965.44;10551297;27;96471;-80
2021/12/10 00:29:48;;;;;;;18.67;7.57;;;1.50;99.90;;;-0.55;100.00;98963.53;10533462;27;96483;-80
2021/12/10 00:34:53;;;;;;;11.35;5.65;;;1.50;99.90;;;-0.50;100.00;98956.13;10538050;27;96619;-80
2021/12/10 00:40:00;;;;;;;11.20;5.60;;;1.60;99.90;;;-0.45;100.00;98969.63;10533383;27;96616;-80
2021/12/10 00:45:08;;;;;;;15.90;6.83;;;1.60;99.90;;;-0.42;100.00;98985.06;10566226;27;96639;-80
2021/12/10 00:50:18;;;;;;;13.37;5.87;;;1.70;99.90;;;-0.41;100.00;99004.97;10531918;27;96534;-80
2021/12/10 00:55:24;;;;;;;18.40;7.43;;;1.70;99.90;;;-0.38;100.00;99006.50;10537286;27;96810;-80
2021/12/10 01:00:35;;;;;;;25.30;10.17;;;1.70;99.90;;;-0.35;100.00;98998.41;10558353;27;96668;-80
2021/12/10 01:05:42;;;;;;;28.25;9.68;;;1.70;99.90;;;-0.36;100.00;98981.06;10572073;27;96568;-80
2021/12/10 01:10:57;;;;;;;26.70;10.27;;;1.70;99.90;;;-0.41;100.00;98967.59;10547478;27;96574;-80
2021/12/10 01:27:25;;;;;;;28.40;10.57;;;1.60;99.90;;;-0.58;100.00;98979.44;10562090;27;96756;-80
2021/12/10 01:32:33;;;;;;;23.10;9.90;;;1.60;99.90;;;-0.66;100.00;98972.25;10558311;27;96542;-80
2021/12/10 01:37:37;;;;;;;23.07;8.80;;;1.50;99.90;;;-0.72;100.00;98967.56;10531435;27;96863;-80
2021/12/10 01:42:47;;;;;;;25.87;10.03;;;1.40;99.90;;;-0.78;100.00;98969.81;10531546;27;96473;-80
2021/12/10 01:48:02;;;;;;;37.87;13.90;;;1.40;99.90;;;-0.84;100.00;98972.00;10515093;27;96605;-80
2021/12/10 01:53:10;;;;;;;34.10;11.87;;;1.30;99.90;;;-0.91;100.00;98981.25;10553066;27;96555;-80
2021/12/10 01:58:18;;;;;;;37.43;11.77;;;1.30;99.90;;;-0.98;100.00;98987.91;10544385;27;97169;-80
2021/12/10 02:03:22;;;;;;;31.37;12.10;;;1.20;99.90;;;-1.01;100.00;98982.97;10541899;27;97167;-80
2021/12/10 02:08:26;;;;;;;35.43;12.03;;;1.10;99.90;;;-1.01;100.00;98985.56;10529024;27;96537;-80
2021/12/10 02:13:29;;;;;;;33.67;10.23;;;1.10;99.90;;;-1.02;100.00;98976.09;10541062;27;96563;-80
2021/12/10 02:18:32;;;;;;;30.53;9.83;;;1.10;99.90;;;-1.00;100.00;98986.41;10553210;27;96622;-81
2021/12/10 02:23:40;;;;;;;26.77;10.43;;;1.10;99.90;;;-1.01;100.00;98988.19;10529789;27;96552;-80
2021/12/10 02:28:44;;;;;;;23.43;9.30;;;1.10;99.90;;;-0.99;100.00;98991.47;10554491;27;96507;-80
2021/12/10 02:33:47;;;;;;;24.07;8.60;;;1.10;99.90;;;-0.95;100.00;98992.06;10563228;27;96532;-80
2021/12/10 02:38:52;;;;;;;23.27;9.27;;;1.10;99.90;;;-0.91;100.00;99006.50;10568674;27;96463;-80
2021/12/10 02:43:57;;;;;;;23.03;8.13;;;1.10;99.90;;;-0.88;100.00;99008.88;10542485;27;96658;-79
2021/12/10 02:49:00;;;;;;;20.90;7.47;;;1.20;99.90;;;-0.86;100.00;99005.16;10536830;27;96672;-80
2021/12/10 02:54:06;;;;;;;19.13;8.00;;;1.20;99.90;;;-0.85;100.00;99008.59;10538247;27;96468;-80
2021/12/10 02:59:09;;;;;;;21.23;9.37;;;1.20;99.90;;;-0.85;100.00;99013.81;10554217;27;96563;-80
2021/12/10 03:04:13;;;;;;;18.37;9.27;;;1.30;99.90;;;-0.85;100.00;99017.25;10563747;27;96779;-80
2021/12/10 03:09:19;;;;;;;22.40;10.37;;;1.30;99.90;;;-0.85;100.00;99004.22;10568326;27;96671;-80
2021/12/10 03:14:28;;;;;;;28.00;10.93;;;1.30;99.90;;;-0.85;100.00;98996.38;10580946;27;96573;-80
2021/12/10 03:19:31;;;;;;;21.63;10.00;;;1.30;99.90;;;-0.86;100.00;98981.69;10576934;27;96565;-80
2021/12/10 03:24:35;;;;;;;30.73;11.97;;;1.20;99.90;;;-0.89;100.00;98999.41;10570798;27;96439;-80
2021/12/10 03:29:42;;;;;;;33.50;13.53;;;1.20;99.90;;;-0.93;100.00;98998.81;10531399;27;97178;-80
2021/12/10 03:34:46;;;;;;;49.43;19.93;;;1.20;99.90;;;-0.96;100.00;98998.22;10532615;27;96559;-80
2021/12/10 03:39:51;;;;;;;35.27;11.67;;;1.10;99.90;;;-0.99;100.00;99007.13;10536944;27;96497;-80
2021/12/10 03:44:54;;;;;;;29.43;12.37;;;1.10;99.90;;;-0.99;100.00;99014.13;10512042;27;96571;-80
2021/12/10 03:49:57;;;;;;;26.30;10.13;;;1.10;99.90;;;-1.05;100.00;99017.22;10559132;27;96723;-81
2021/12/10 03:55:01;;;;;;;42.77;16.20;;;1.10;99.90;;;-1.08;100.00;99020.88;10567233;27;96531;-80
2021/12/10 04:00:06;;;;;;;50.40;16.90;;;1.10;99.90;;;-1.12;100.00;99022.09;10573800;27;96405;-81
2021/12/10 04:05:09;;;;;;;47.97;17.27;;;1.00;99.90;;;-1.16;100.00;99024.13;10537312;27;96554;-80
2021/12/10 04:10:17;;;;;;;44.80;15.93;;;0.90;99.90;;;-1.19;100.00;99031.38;10549179;27;96609;-81
2021/12/10 04:15:23;;;;;;;36.77;14.37;;;0.90;99.90;;;-1.26;100.00;99028.41;10554560;27;96437;-81
2021/12/10 04:20:30;;;;;;;29.27;12.10;;;0.80;99.90;;;-1.33;100.00;99029.84;10572362;27;96431;-80
2021/12/10 04:25:33;;;;;;;26.67;10.67;;;0.80;99.90;;;-1.39;100.00;99038.13;10538350;27;96528;-81
2021/12/10 04:30:41;;;;;;;29.27;12.37;;;0.70;99.90;;;-1.44;100.00;99043.72;10511995;27;97352;-81
2021/12/10 04:35:46;;;;;;;29.37;11.50;;;0.60;99.90;;;-1.48;100.00;99044.91;10527317;27;96398;-81
2021/12/10 04:40:52;;;;;;;32.07;14.50;;;0.60;99.90;;;-1.49;100.00;99055.47;10539765;27;96517;-82
2021/12/10 04:45:58;;;;;;;37.67;15.00;;;0.50;99.90;;;-1.49;100.00;99061.50;10559312;27;96511;-82
2021/12/10 04:51:01;;;;;;;37.07;14.27;;;0.50;99.90;;;-1.51;100.00;99058.16;10544684;27;97146;-82
2021/12/10 04:56:05;;;;;;;39.10;15.07;;;0.50;99.90;;;-1.51;100.00;99063.38;10550483;27;96533;-82
2021/12/10 05:01:08;;;;;;;36.13;14.53;;;0.50;99.90;;;-1.51;100.00;99081.59;10519777;27;96504;-82
2021/12/10 05:06:11;;;;;;;47.30;17.97;;;0.50;99.90;;;-1.50;100.00;99093.72;10551735;27;97326;-81
2021/12/10 05:11:15;;;;;;;89.47;29.77;;;0.50;99.90;;;-1.47;100.00;99093.47;10510895;27;96620;-82
2021/12/10 05:16:25;;;;;;;43.97;16.00;;;0.50;99.90;;;-1.44;100.00;99090.63;10535201;27;96563;-82
2021/12/10 05:21:32;;;;;;;45.60;18.03;;;0.60;99.90;;;-1.37;100.00;99098.81;10569461;27;96534;-82
2021/12/10 05:26:36;;;;;;;57.27;19.57;;;0.60;99.90;;;-1.33;100.00;99092.38;10525910;27;96935;-82
2021/12/10 05:31:43;;;;;;;57.20;18.60;;;0.70;99.90;;;-1.27;100.00;99091.06;10517642;27;97958;-82
2021/12/10 05:36:50;;;;;;;70.57;24.13;;;0.80;99.90;;;-1.22;100.00;99099.38;10552752;27;96541;-82
2021/12/10 05:41:54;;;;;;;74.20;28.47;;;0.80;99.90;;;-1.19;100.00;99110.41;10549456;27;96495;-81
2021/12/10 05:46:59;;;;;;;72.30;23.90;;;0.90;99.90;;;-1.16;100.00;99106.72;10531350;27;96602;-81
2021/12/10 05:52:05;;;;;;;81.33;25.73;;;0.90;99.90;;;-1.16;100.00;99097.09;10572856;27;96620;-81
2021/12/10 05:57:08;;;;;;;73.30;22.97;;;1.00;99.90;;;-1.15;100.00;99092.72;10517492;27;96524;-81
2021/12/10 06:02:11;;;;;;;80.17;23.47;;;1.00;99.90;;;-1.13;100.00;99078.63;10528897;27;97467;-80
2021/12/10 06:07:14;;;;;;;84.40;24.50;;;1.00;99.90;;;-1.13;100.00;99078.63;10549777;27;96868;-81
2021/12/10 06:12:17;;;;;;;78.97;23.77;;;1.00;99.90;;;-1.11;100.00;99070.69;10560577;27;96524;-81
2021/12/10 06:17:24;;;;;;;81.97;23.80;;;1.00;99.90;;;-1.11;100.00;99071.50;10552731;27;96560;-81
2021/12/10 06:22:27;;;;;;;73.83;22.17;;;1.00;99.90;;;-1.10;100.00;99059.28;10548072;27;97818;-81
2021/12/10 06:27:30;;;;;;;64.07;21.00;;;1.00;99.90;;;-1.13;100.00;99049.97;10552892;27;96663;-81
2021/12/10 06:32:33;;;;;;;74.67;22.87;;;1.00;99.90;;;-1.16;100.00;99047.56;10547238;27;96700;-81
2021/12/10 06:37:38;;;;;;;67.30;22.60;;;1.00;99.90;;;-1.16;100.00;99055.41;10537627;27;97744;-81
2021/12/10 06:42:41;;;;;;;69.03;24.73;;;1.00;99.90;;;-1.16;100.00;99063.22;10553408;27;97254;-81
2021/12/10 06:47:48;;;;;;;84.50;32.73;;;1.00;99.90;;;-1.14;100.00;99063.09;10530845;27;96731;-82
2021/12/10 06:52:52;;;;;;;90.17;33.13;;;1.00;99.90;;;-1.14;100.00;99061.34;10521291;27;96817;-81
2021/12/10 06:57:56;;;;;;;118.17;39.47;;;1.00;99.90;;;-1.15;100.00;99064.88;10529036;27;96500;-81
2021/12/10 07:02:59;;;;;;;94.53;31.10;;;1.00;99.90;;;-1.16;100.00;99070.22;10565601;27;96570;-81
2021/12/10 07:25:20;;;;;;;71.60;26.57;;;0.90;99.90;;;-0.62;100.00;99056.31;10478000;27;96514;-78
2021/12/10 07:30:26;;;;;;;61.07;22.00;;;1.40;99.90;;;-0.49;100.00;99067.41;10447297;27;96620;-78
2021/12/10 07:35:29;;;;;;;53.40;20.57;;;1.40;99.90;;;-0.41;100.00;99062.41;10411435;27;96668;-78
2021/12/10 07:40:35;;;;;;;47.47;20.60;;;1.50;99.90;;;-0.34;100.00;99055.72;10418922;27;96684;-78
2021/12/10 07:45:40;;;;;;;48.07;20.67;;;1.60;99.90;;;-0.25;100.00;99041.06;10398278;27;96607;-79
2021/12/10 07:51:05;;;;;;;55.17;21.00;;;1.70;99.90;;;-0.13;100.00;99036.59;10423002;27;96523;-78
2021/12/10 07:56:11;;;;;;;54.17;22.50;;;1.80;99.90;;;0.07;100.00;99027.94;10410566;27;96854;-79
2021/12/10 08:01:20;;;;;;;64.00;26.43;;;1.90;99.90;;;0.32;100.00;99020.63;10425419;27;96857;-79
2021/12/10 08:06:24;;;;;;;69.43;26.73;;;2.10;99.90;;;0.58;100.00;99024.41;10451353;27;96483;-79
2021/12/10 08:11:27;;;;;;;58.50;23.30;;;2.30;99.90;;;0.82;100.00;99018.00;10434716;27;96486;-79
2021/12/10 08:16:30;;;;;;;55.13;23.47;;;2.60;99.90;;;0.88;100.00;99027.94;10429688;27;96641;-79
2021/12/10 08:21:34;;;;;;;42.63;19.20;;;2.80;99.90;;;0.94;100.00;99035.22;10442145;27;97981;-79
2021/12/10 08:26:39;;;;;;;47.13;22.67;;;2.90;99.90;;;0.92;100.00;99026.72;10401692;28;96798;-79
2021/12/10 08:31:43;;;;;;;39.73;19.10;;;3.00;99.90;;;0.90;100.00;99023.38;10380214;28;96546;-79
2021/12/10 08:36:46;;;;;;;44.20;20.97;;;3.00;99.90;;;0.82;100.00;99026.69;10401242;28;97720;-79
2021/12/10 08:41:49;;;;;;;41.20;20.00;;;3.00;99.90;;;0.73;100.00;99035.34;10405212;28;96583;-79
2021/12/10 08:46:52;;;;;;;47.17;22.37;;;3.00;99.90;;;0.65;100.00;99041.22;10409078;28;96480;-79
2021/12/10 08:51:57;;;;;;;44.30;21.87;;;2.90;99.90;;;0.63;100.00;99040.53;10383501;28;97652;-79
2021/12/10 08:57:01;;;;;;;48.93;22.33;;;2.90;99.90;;;0.58;100.00;99037.47;10395248;28;96584;-79
2021/12/10 09:02:11;;;;;;;50.30;23.10;;;2.90;99.90;;;0.56;100.00;99028.97;10407125;28;96442;-79
2021/12/10 09:07:18;;;;;;;44.47;21.03;;;2.90;99.90;;;0.61;100.00;99032.00;10410345;28;96491;-78
2021/12/10 09:12:26;;;;;;;47.90;23.00;;;2.90;99.90;;;0.69;100.00;99026.09;10386919;27;96515;-78
2021/12/10 09:17:31;;;;;;;45.33;21.77;;;3.00;99.90;;;0.77;100.00;99027.06;10373533;28;96553;-78
2021/12/10 09:22:35;;;;;;;42.50;20.20;;;3.10;99.90;;;0.82;100.00;99024.06;10383809;28;96658;-78
2021/12/10 09:27:39;;;;;;;45.03;21.43;;;3.10;99.90;;;0.87;100.00;99036.75;10421045;28;96510;-79
2021/12/10 09:32:44;;;;;;;44.20;20.63;;;3.20;99.90;;;0.89;100.00;99035.63;10398591;28;96509;-79
2021/12/10 09:37:47;;;;;;;50.17;23.87;;;3.20;99.90;;;0.89;100.00;99030.41;10361015;28;97232;-78
2021/12/10 09:42:51;;;;;;;41.13;19.23;;;3.20;99.90;;;0.87;100.00;99034.13;10390880;28;96670;-81
2021/12/10 09:47:54;;;;;;;39.00;18.33;;;3.20;99.90;;;0.84;100.00;99032.63;10380273;28;96532;-78
2021/12/10 09:52:59;;;;;;;43.20;19.63;;;3.10;99.90;;;0.86;100.00;99030.69;10396825;28;98062;-79
2021/12/10 09:58:03;;;;;;;47.70;23.33;;;3.10;99.90;;;0.90;100.00;99031.22;10420113;28;96445;-79
2021/12/10 10:03:10;;;;;;;43.37;19.97;;;3.20;99.90;;;0.92;100.00;99039.78;10402818;28;97509;-79
2021/12/10 10:08:20;;;;;;;44.60;19.50;;;3.20;99.90;;;0.93;100.00;99038.81;10380302;28;96619;-79
2021/12/10 10:13:33;;;;;;;40.53;18.73;;;3.20;99.90;;;0.94;100.00;99048.31;10378939;28;98419;-79
2021/12/10 10:18:39;;;;;;;33.87;16.80;;;3.20;99.90;;;0.91;100.00;99048.59;10401046;28;96646;-80
2021/12/10 10:23:43;;;;;;;43.73;19.87;;;3.20;99.90;;;0.88;100.00;99041.00;10365477;28;96859;-80
2021/12/10 10:28:47;;;;;;;43.97;21.23;;;3.10;99.90;;;0.87;100.00;99039.34;10377744;28;96556;-80
2021/12/10 10:33:56;;;;;;;45.20;21.37;;;3.10;99.90;;;0.89;100.00;99029.56;10414267;28;96682;-80
2021/12/10 10:39:20;;;;;;;43.47;20.87;;;3.10;99.90;;;0.90;100.00;99023.38;10418902;28;96546;-80
2021/12/10 10:44:24;;;;;;;39.60;20.50;;;3.10;99.90;;;0.84;100.00;99018.69;10416014;28;96585;-80
2021/12/10 10:49:38;;;;;;;36.87;19.03;;;3.10;99.90;;;0.80;100.00;99005.91;10401414;28;96585;-80
2021/12/10 10:54:43;;;;;;;28.60;16.00;;;3.10;99.90;;;0.82;100.00;98987.44;10413070;27;96467;-79
2021/12/10 10:59:49;;;;;;;38.87;19.43;;;3.00;99.90;;;0.81;100.00;98980.56;10407570;28;97669;-79
2021/12/10 11:04:54;;;;;;;31.60;16.03;;;3.00;99.90;;;0.83;100.00;98977.81;10377386;28;98281;-79
2021/12/10 11:10:05;;;;;;;30.40;16.50;;;3.00;99.90;;;0.80;100.00;98971.06;10392265;28;96534;-79
2021/12/10 11:15:17;;;;;;;33.47;17.63;;;3.00;99.90;;;0.77;100.00;98977.38;10400749;28;96557;-79
2021/12/10 11:20:42;;;;;;;30.57;16.77;;;3.00;99.90;;;0.75;100.00;98974.09;10401690;28;96592;-79
2021/12/10 11:25:50;;;;;;;35.37;17.77;;;2.90;99.90;;;0.76;100.00;98974.91;10366290;28;96536;-79
2021/12/10 11:31:16;;;;;;;33.90;14.57;;;2.90;99.90;;;0.76;100.00;98965.28;10401938;27;96423;-79
2021/12/10 11:36:26;;;;;;;38.10;18.70;;;2.90;99.90;;;0.77;100.00;98979.19;10375714;28;96527;-79
2021/12/10 11:41:31;;;;;;;38.97;20.07;;;2.90;99.90;;;0.76;100.00;98956.59;10410547;28;96601;-79
2021/12/10 11:47:14;;;;;;;35.77;18.13;;;2.90;99.90;;;0.78;99.89;98945.06;10390339;28;96503;-78
2021/12/10 11:52:21;;;;;;;41.47;18.60;;;2.90;99.90;;;0.80;99.77;98956.22;10375455;28;96458;-78
2021/12/10 11:57:29;;;;;;;40.70;20.00;;;2.90;99.90;;;0.82;100.00;98950.00;10377383;28;96418;-78
2021/12/10 12:03:03;;;;;;;37.23;19.10;;;3.00;99.90;;;0.84;99.48;98948.94;10394048;28;96513;-80
2021/12/10 12:08:10;;;;;;;38.13;19.30;;;3.00;99.90;;;0.85;99.73;98950.56;10382319;28;97559;-80
2021/12/10 12:13:32;;;;;;;37.03;18.93;;;3.00;99.90;;;0.88;99.75;98949.47;10386008;28;96563;-80
2021/12/10 12:18:49;;;;;;;31.80;16.38;;;3.00;99.90;;;0.84;99.29;98929.75;10392686;28;96528;-80
2021/12/10 12:29:37;;;;;;;40.17;18.97;;;3.00;99.90;;;0.78;99.67;98944.22;10386860;28;96566;-80
2021/12/10 12:34:41;;;;;;;37.65;18.13;;;3.00;99.90;;;0.80;99.47;98937.91;10413258;28;97719;-80
2021/12/10 12:39:55;;;;;;;41.80;19.40;;;3.00;99.90;;;0.85;100.00;98942.72;10419612;28;96523;-80
2021/12/10 12:45:14;;;;;;;44.00;21.33;;;3.00;99.90;;;0.91;99.87;98933.50;10439507;27;96605;-78
2021/12/10 12:50:41;;;;;;;42.20;20.57;;;3.10;99.90;;;1.04;100.00;98920.97;10420960;28;96487;-80
2021/12/10 12:56:01;;;;;;;36.07;18.90;;;3.20;99.90;;;1.11;99.99;98923.84;10420501;27;96486;-80
2021/12/10 13:01:49;;;;;;;36.93;20.30;;;3.20;99.90;;;1.15;99.51;98912.16;10421959;28;96484;-80
2021/12/10 13:07:07;;;;;;;29.33;16.20;;;3.30;99.90;;;1.19;99.36;98903.88;10399025;28;98363;-80
2021/12/10 13:17:40;;;;;;;31.93;16.67;;;3.30;99.90;;;1.22;99.28;98902.78;10410113;28;96531;-81
2021/12/10 13:22:52;;;;;;;30.13;15.57;;;3.30;99.90;;;1.17;98.96;98903.19;10404217;28;96969;-80
2021/12/10 13:28:00;;;;;;;39.60;18.77;;;3.30;99.90;;;1.14;99.15;98895.63;10398464;28;96488;-80
2021/12/10 13:33:03;;;;;;;33.00;15.83;;;3.30;99.90;;;1.12;99.07;98894.94;10374674;28;98218;-81
2021/12/10 13:38:09;;;;;;;33.87;16.83;;;3.30;99.90;;;1.06;98.96;98898.09;10379626;28;96406;-81
2021/12/10 13:43:14;;;;;;;31.33;17.27;;;3.30;99.90;;;1.00;99.24;98901.28;10379619;28;96533;-80
2021/12/10 13:48:18;;;;;;;38.90;19.80;;;3.20;99.90;;;0.93;99.13;98905.41;10397736;28;96723;-81
2021/12/10 13:53:26;;;;;;;71.03;33.47;;;3.20;99.90;;;0.89;99.42;98909.25;10378851;28;96824;-81
2021/12/10 13:58:41;;;;;;;64.23;31.53;;;3.10;99.90;;;0.83;99.31;98918.47;10362082;28;96460;-80
2021/12/10 14:04:10;;;;;;;59.10;29.27;;;3.10;99.90;;;0.78;99.68;98913.69;10396894;28;96502;-80
2021/12/10 14:14:51;;;;;;;42.87;21.37;;;3.00;99.90;;;0.67;99.32;98905.97;10394402;28;97041;-81
2021/12/10 14:19:57;;;;;;;45.27;23.57;;;2.90;99.90;;;0.60;99.55;98904.88;10380195;28;96753;-81
2021/12/10 14:25:41;;;;;;;54.37;26.77;;;2.80;99.90;;;0.53;99.62;98899.31;10403280;28;96526;-81
2021/12/10 14:31:11;;;;;;;53.93;25.87;;;2.70;99.90;;;0.47;99.64;98906.88;10400682;27;96477;-81
2021/12/10 14:36:15;;;;;;;53.57;27.10;;;2.70;99.90;;;0.44;99.94;98909.78;10397877;28;98354;-90
2021/12/10 14:41:26;;;;;;;48.93;23.93;;;2.60;99.90;;;0.40;100.00;98911.00;10399420;28;98141;-83
2021/12/10 14:46:39;;;;;;;;;;;2.60;99.90;;;0.36;99.89;98902.63;10410738;28;96632;-83
2021/12/10 14:52:33;;;;;;;43.37;21.83;;;2.60;99.90;;;0.31;100.00;98914.44;10386800;28;96592;-83
2021/12/10 14:58:09;;;;;;;;;;;2.50;99.90;;;0.26;100.00;98920.88;10380584;28;97888;-83
2021/12/10 15:03:46;;;;;;;45.33;23.07;;;2.50;99.90;;;0.20;100.00;98918.81;10367641;28;96512;-83
2021/12/10 15:09:09;;;;;;;53.00;26.17;;;2.50;99.90;;;0.18;100.00;98918.13;10409134;28;98224;-83
2021/12/10 15:14:40;;;;;;;47.57;23.27;;;2.40;99.90;;;0.17;100.00;98926.91;10392312;28;96610;-83
2021/12/10 15:19:50;;;;;;;43.33;21.97;;;2.40;99.90;;;0.18;100.00;98919.88;10376587;28;96541;-83
2021/12/10 15:24:56;;;;;;;64.60;27.10;;;2.40;99.90;;;0.17;100.00;98929.50;10400193;28;96491;-83
2021/12/10 15:30:27;;;;;;;32.17;19.13;;;2.40;99.90;;;0.16;100.00;98932.25;10404020;28;98104;-83
2021/12/10 15:35:42;;;;;;;38.53;20.77;;;2.40;99.90;;;0.14;100.00;98927.19;10384681;28;96823;-83
2021/12/10 15:41:14;;;;;;;42.47;22.33;;;2.40;99.90;;;0.12;100.00;98920.41;10402498;28;96512;-83
2021/12/10 15:46:23;;;;;;;44.33;23.40;;;2.30;99.90;;;0.11;100.00;98924.81;10404577;28;96867;-83
2021/12/10 15:51:35;;;;;;;53.30;27.37;;;2.40;99.90;;;0.10;100.00;98907.50;10416800;28;96523;-83
2021/12/10 15:57:04;;;;;;;32.15;18.08;;;2.30;99.90;;;0.10;100.00;98919.72;10371671;28;96839;-80
2021/12/10 16:02:10;;;;;;;40.73;22.13;;;2.30;99.90;;;0.09;100.00;98920.69;10419630;27;96471;-90
2021/12/10 16:07:23;;;;;;;38.50;19.33;;;2.30;99.90;;;0.05;100.00;98920.13;10360578;28;97097;-85
2021/12/10 16:12:27;;;;;;;41.10;21.67;;;2.30;99.90;;;0.04;100.00;98928.09;10390871;28;96878;-86
2021/12/10 16:17:30;;;;;;;39.43;20.63;;;2.30;99.90;;;0.02;100.00;98928.25;10375418;28;96814;-86
2021/12/10 16:22:34;;;;;;;33.50;17.73;;;2.30;99.90;;;-0.01;100.00;98931.91;10384996;28;96647;-86
2021/12/10 16:27:46;;;;;;;31.03;17.03;;;2.20;99.90;;;-0.02;100.00;98926.84;10385809;28;96391;-85
2021/12/10 16:32:51;;;;;;;28.00;15.97;;;2.20;99.90;;;-0.03;100.00;98927.81;10414856;28;96788;-86
2021/12/10 16:37:59;;;;;;;35.33;18.33;;;2.20;99.90;;;-0.03;100.00;98927.81;10382106;28;96486;-86
2021/12/10 16:43:08;;;;;;;39.97;20.57;;;2.20;99.90;;;-0.03;100.00;98928.63;10371389;27;96530;-85
2021/12/10 16:48:22;;;;;;;40.40;19.43;;;2.20;99.90;;;-0.04;100.00;98931.38;10395137;28;97818;-85
2021/12/10 16:53:39;;;;;;;38.90;20.30;;;2.20;99.90;;;-0.06;100.00;98928.06;10402288;28;96492;-85
2021/12/10 16:58:46;;;;;;;41.80;22.00;;;2.20;99.90;;;-0.07;100.00;98919.38;10405126;28;96523;-85
2021/12/10 17:03:54;;;;;;;39.67;21.43;;;2.20;99.90;;;-0.07;100.00;98929.84;10377301;28;96597;-86
2021/12/10 17:08:58;;;;;;;42.93;21.87;;;2.10;99.90;;;-0.07;100.00;98923.78;10381789;28;96623;-85
2021/12/10 17:14:28;;;;;;;54.20;26.67;;;2.10;99.90;;;-0.06;100.00;98928.06;10388399;28;98381;-85
2021/12/10 17:19:59;;;;;;;37.17;19.27;;;2.10;99.90;;;-0.08;100.00;98924.75;10403548;28;97601;-85
2021/12/10 17:25:34;;;;;;;42.07;20.93;;;2.10;99.90;;;-0.07;100.00;98935.06;10386102;28;97135;-85
2021/12/10 17:31:08;;;;;;;50.00;21.87;;;2.20;99.90;;;-0.06;100.00;98935.88;10413444;28;96677;-85
2021/12/10 17:36:18;;;;;;;40.20;18.90;;;2.20;99.90;;;-0.06;100.00;98928.06;10386632;28;97990;-85
2021/12/10 17:41:31;;;;;;;36.00;18.97;;;2.20;99.90;;;-0.07;100.00;98934.22;10391227;28;97275;-83
2021/12/10 17:46:45;;;;;;;38.43;19.93;;;2.10;99.90;;;-0.08;100.00;98943.84;10390144;28;96574;-83
2021/12/10 17:51:52;;;;;;;35.53;18.33;;;2.10;99.90;;;-0.07;100.00;98936.84;10396584;28;96926;-83
2021/12/10 17:56:58;;;;;;;35.73;19.57;;;2.10;99.90;;;-0.09;100.00;98934.38;10412779;28;96580;-81
2021/12/10 18:02:16;;;;;;;38.63;21.23;;;2.10;99.90;;;-0.10;100.00;98937.13;10419815;28;98420;-83
2021/12/10 18:07:21;;;;;;;43.33;22.80;;;2.10;99.90;;;-0.11;100.00;98936.31;10419390;28;96595;-83
2021/12/10 18:12:31;;;;;;;47.27;23.70;;;2.10;99.90;;;-0.12;100.00;98937.25;10416183;28;96548;-83
2021/12/10 18:17:40;;;;;;;41.53;21.27;;;2.10;99.90;;;-0.13;100.00;98945.19;10403355;28;96623;-83
2021/12/10 18:23:06;;;;;;;41.90;21.00;;;2.10;99.90;;;-0.13;100.00;98939.97;10380174;28;96574;-83
2021/12/10 18:28:11;;;;;;;39.00;19.33;;;2.10;99.90;;;-0.13;100.00;98953.03;10364968;28;96641;-83
2021/12/10 18:33:14;;;;;;;34.23;17.70;;;2.10;99.90;;;-0.15;100.00;98955.78;10399595;28;96701;-82
2021/12/10 18:38:22;;;;;;;40.43;19.13;;;2.10;99.90;;;-0.15;100.00;98955.78;10376525;28;96516;-82
2021/12/10 18:43:31;;;;;;;37.83;18.90;;;2.10;99.90;;;-0.15;100.00;98957.56;10363931;28;96426;-82
2021/12/10 18:48:37;;;;;;;36.60;19.70;;;2.10;99.90;;;-0.16;100.00;98963.75;10390761;28;96484;-82
2021/12/10 18:54:04;;;;;;;42.00;20.50;;;2.10;99.90;;;-0.16;100.00;98966.38;10388426;28;96936;-82
2021/12/10 18:59:13;;;;;;;34.50;17.80;;;2.10;99.90;;;-0.17;100.00;98976.00;10359457;28;96503;-82
2021/12/10 19:04:27;;;;;;;35.87;19.07;;;2.00;99.90;;;-0.18;100.00;98973.47;10410716;28;98030;-82
2021/12/10 19:09:36;;;;;;;40.60;20.23;;;2.00;99.90;;;-0.17;100.00;98980.38;10414836;28;96582;-81
2021/12/10 19:14:47;;;;;;;54.57;24.80;;;2.00;99.90;;;-0.18;100.00;98987.41;10405512;28;97045;-81
2021/12/10 19:20:14;;;;;;;47.35;19.40;;;2.10;99.90;;;-0.16;100.00;98989.88;10410322;28;96548;-83
2021/12/10 19:25:31;;;;;;;71.03;32.07;;;2.10;99.90;;;-0.17;100.00;98989.03;10384652;28;96667;-83
2021/12/10 19:30:47;;;;;;;60.63;27.87;;;2.00;99.90;;;-0.18;100.00;98997.84;10378514;28;96833;-86
2021/12/10 19:35:57;;;;;;;41.73;21.57;;;2.10;99.90;;;-0.17;100.00;99007.31;10359800;28;96532;-92
2021/12/10 19:41:11;;;;;;;43.87;22.10;;;2.00;99.90;;;-0.19;100.00;99011.81;10376464;28;96460;-82
2021/12/10 19:46:21;;;;;;;42.20;19.80;;;2.10;99.90;;;-0.18;100.00;99015.25;10394693;28;96483;-81
2021/12/10 19:52:02;;;;;;;34.33;18.43;;;2.00;99.90;;;-0.18;100.00;99020.47;10388432;28;96937;-81
2021/12/10 19:57:23;;;;;;;47.07;24.27;;;2.00;99.90;;;-0.17;100.00;99014.31;10365714;28;96510;-81
2021/12/10 20:02:45;;;;;;;47.22;24.92;;;2.00;99.90;;;-0.18;100.00;99012.66;10388355;28;97542;-79
2021/12/10 20:07:59;;;;;;;49.13;23.35;;;2.10;99.90;;;-0.17;100.00;99016.94;10398052;28;97166;-79
2021/12/10 20:13:23;;;;;;;51.07;22.97;;;2.10;99.90;;;-0.18;100.00;99018.72;10386304;28;96717;-79
2021/12/10 20:18:37;;;;;;;54.80;24.20;;;2.00;99.90;;;-0.19;100.00;99013.63;10416511;27;97425;-79
2021/12/10 20:23:48;;;;;;;48.97;25.73;;;2.00;99.90;;;-0.19;100.00;99024.06;10420140;27;96736;-79
2021/12/10 20:29:01;;;;;;;42.97;22.83;;;2.00;99.90;;;-0.18;100.00;99029.16;10404976;28;97358;-79
2021/12/10 20:34:10;;;;;;;47.67;24.93;;;2.00;99.90;;;-0.19;100.00;99016.22;10397532;28;96704;-78
2021/12/10 20:39:44;;;;;;;35.17;18.17;;;2.00;99.90;;;-0.19;100.00;99027.50;10385508;28;96698;-78
2021/12/10 20:44:54;;;;;;;32.13;17.23;;;2.00;99.90;;;-0.19;100.00;99016.22;10397507;28;97500;-79
2021/12/10 20:50:06;;;;;;;31.95;16.40;;;2.00;99.90;;;-0.18;100.00;99023.09;10392945;28;96730;-79
2021/12/10 20:55:18;;;;;;;34.90;17.60;;;2.10;99.90;;;-0.20;100.00;99017.19;10394582;28;98387;-78
2021/12/10 21:00:57;;;;;;;37.27;18.03;;;2.00;99.90;;;-0.20;100.00;99025.00;10381022;28;96917;-78
2021/12/10 21:06:07;;;;;;;34.20;17.97;;;2.00;99.90;;;-0.21;100.00;99028.59;10402025;28;98299;-78
2021/12/10 21:11:28;;;;;;;30.90;17.10;;;2.00;99.90;;;-0.20;100.00;99035.47;10379950;28;96974;-78
2021/12/10 21:16:37;;;;;;;34.30;17.77;;;2.00;99.90;;;-0.22;100.00;99040.00;10383823;28;97903;-78
2021/12/10 21:22:00;;;;;;;37.63;18.17;;;2.00;99.90;;;-0.20;100.00;99032.84;10390717;28;96853;-78
2021/12/10 21:27:13;;;;;;;36.17;18.67;;;2.00;99.90;;;-0.22;100.00;99042.59;10406329;28;96867;-79
2021/12/10 21:32:34;;;;;;;35.47;18.30;;;2.00;99.90;;;-0.20;100.00;99053.75;10390310;28;98697;-79
2021/12/10 21:37:57;;;;;;;28.37;15.90;;;2.00;99.90;;;-0.20;100.00;99058.97;10370613;28;98045;-79
2021/12/10 21:43:26;;;;;;;29.87;15.97;;;2.00;99.90;;;-0.19;100.00;99063.22;10402448;27;96650;-79
2021/12/10 21:48:33;;;;;;;29.73;15.37;;;2.00;99.90;;;-0.19;100.00;99058.81;10413207;28;97122;-79
2021/12/10 21:53:39;;;;;;;31.63;15.67;;;2.00;99.90;;;-0.19;100.00;99068.44;10404390;27;96511;-79
2021/12/10 21:58:48;;;;;;;32.67;15.07;;;2.00;99.90;;;-0.19;100.00;99081.50;10379907;28;96794;-78